createdAt,value
2022-08-19T00:00:16.974Z,6.43
2022-08-19T00:02:47.844Z,8.40
2022-08-19T00:05:20.394Z,4.93
2022-08-19T00:07:49.651Z,4.82
2022-08-19T00:10:18.852Z,4.38
2022-08-19T00:12:47.425Z,5.65
2022-08-19T00:15:20.993Z,4.38
2022-08-19T00:17:50.138Z,4.97
2022-08-19T00:20:21.525Z,5.68
2022-08-19T00:22:50.326Z,5.35
2022-08-19T00:25:19.339Z,5.57
2022-08-19T00:28:00.035Z,6.47
2022-08-19T00:30:30.206Z,5.35
2022-08-19T00:32:58.856Z,5.38
2022-08-19T00:35:28.212Z,4.93
2022-08-19T00:37:57.478Z,7.00
2022-08-19T00:40:26.205Z,5.30
2022-08-19T00:42:55.303Z,7.35
2022-08-19T00:45:26.519Z,5.13
2022-08-19T00:47:56.335Z,6.93
2022-08-19T00:50:25.513Z,6.22
2022-08-19T00:52:54.756Z,7.90
2022-08-19T00:55:29.124Z,6.18
2022-08-19T00:58:02.397Z,7.85
2022-08-19T01:00:31.916Z,9.73
2022-08-19T01:03:01.874Z,5.20
2022-08-19T01:05:31.828Z,6.95
2022-08-19T01:08:03.000Z,4.05
2022-08-19T01:10:36.901Z,5.72
2022-08-19T01:13:06.454Z,4.97
2022-08-19T01:15:40.718Z,4.90
2022-08-19T01:18:13.209Z,5.13
2022-08-19T01:20:43.220Z,6.05
2022-08-19T01:23:14.140Z,3.90
2022-08-19T01:25:47.660Z,6.53
2022-08-19T01:28:34.138Z,7.57
2022-08-19T01:31:26.447Z,5.47
2022-08-19T01:33:58.268Z,6.15
2022-08-19T01:36:30.926Z,5.30
2022-08-19T01:39:01.527Z,6.53
2022-08-19T01:41:30.217Z,4.40
2022-08-19T01:44:03.238Z,7.88
2022-08-19T01:46:46.763Z,5.90
2022-08-19T01:49:15.300Z,5.18
2022-08-19T01:51:43.776Z,5.93
2022-08-19T01:54:27.111Z,4.55
2022-08-19T01:57:00.309Z,5.95
2022-08-19T01:59:29.026Z,5.55
2022-08-19T02:01:57.508Z,4.90
2022-08-19T02:04:26.620Z,5.47
2022-08-19T02:06:55.084Z,6.95
2022-08-19T02:09:24.968Z,8.10
2022-08-19T02:11:54.504Z,7.22
2022-08-19T02:14:23.080Z,6.85
2022-08-19T02:16:51.488Z,6.82
2022-08-19T02:19:19.916Z,8.55
2022-08-19T02:21:48.429Z,6.05
2022-08-19T02:24:16.818Z,6.07
2022-08-19T02:26:46.688Z,8.40
2022-08-19T02:29:15.150Z,10.55
2022-08-19T02:31:43.631Z,5.50
2022-08-19T02:34:12.082Z,6.15
2022-08-19T02:36:42.306Z,6.63
2022-08-19T02:39:10.543Z,5.90
2022-08-19T02:41:39.261Z,6.47
2022-08-19T02:44:28.584Z,7.13
2022-08-19T02:46:57.672Z,7.40
2022-08-19T02:49:26.101Z,12.82
2022-08-19T02:51:55.493Z,4.78
2022-08-19T02:54:23.964Z,6.38
2022-08-19T02:56:52.521Z,4.68
2022-08-19T02:59:22.932Z,5.03
2022-08-19T03:01:51.784Z,5.32
2022-08-19T03:04:20.514Z,6.85
2022-08-19T03:06:49.609Z,6.55
2022-08-19T03:09:20.703Z,5.80
2022-08-19T03:11:49.886Z,7.13
2022-08-19T03:14:22.727Z,6.50
2022-08-19T03:16:53.682Z,7.20
2022-08-19T03:19:23.465Z,9.13
2022-08-19T03:21:52.759Z,8.40
2022-08-19T03:24:21.826Z,8.38
2022-08-19T03:26:52.342Z,6.65
2022-08-19T03:29:30.352Z,9.07
2022-08-19T03:32:01.695Z,7.80
2022-08-19T03:34:32.935Z,10.32
2022-08-19T03:37:07.831Z,10.90
2022-08-19T03:39:38.218Z,8.52
2022-08-19T03:42:47.753Z,8.32
2022-08-19T03:44:57.038Z,7.05
2022-08-19T03:47:25.459Z,13.68
2022-08-19T03:49:53.863Z,6.72
2022-08-19T03:52:22.300Z,8.30
2022-08-19T03:54:50.731Z,6.57
2022-08-19T03:57:19.267Z,9.02
2022-08-19T03:59:47.645Z,5.35
2022-08-19T04:02:17.773Z,10.25
2022-08-19T04:04:46.585Z,7.68
2022-08-19T04:07:17.486Z,7.95
2022-08-19T04:09:46.393Z,7.95
2022-08-19T04:12:16.030Z,5.13
2022-08-19T04:14:44.467Z,5.70
2022-08-19T04:17:14.061Z,6.28
2022-08-19T04:19:44.107Z,6.35
2022-08-19T04:22:13.706Z,6.75
2022-08-19T04:24:42.231Z,7.30
2022-08-19T04:27:10.809Z,5.85
2022-08-19T04:29:40.628Z,7.40
2022-08-19T04:32:09.877Z,7.38
2022-08-19T04:35:02.391Z,5.65
2022-08-19T04:37:35.563Z,6.95
2022-08-19T04:42:53.076Z,7.90
2022-08-19T04:45:22.838Z,8.88
2022-08-19T04:47:58.669Z,6.07
2022-08-19T04:50:42.980Z,6.72
2022-08-19T04:53:12.966Z,6.95
2022-08-19T04:55:43.553Z,6.00
2022-08-19T04:58:12.044Z,8.85
2022-08-19T05:00:41.674Z,8.07
2022-08-19T05:03:10.444Z,6.32
2022-08-19T05:05:44.842Z,10.65
2022-08-19T05:08:31.065Z,6.75
2022-08-19T05:11:00.548Z,6.10
2022-08-19T05:13:29.251Z,7.28
2022-08-19T05:15:58.857Z,6.75
2022-08-19T05:18:45.766Z,6.85
2022-08-19T05:21:34.837Z,5.93
2022-08-19T05:24:09.585Z,7.28
2022-08-19T05:26:39.130Z,9.05
2022-08-19T05:29:09.581Z,10.65
2022-08-19T05:31:39.585Z,9.80
2022-08-19T05:34:18.445Z,11.85
2022-08-19T05:36:48.813Z,7.38
2022-08-19T05:39:22.839Z,6.80
2022-08-19T05:41:54.482Z,10.60
2022-08-19T05:44:23.641Z,13.68
2022-08-19T05:46:53.988Z,13.55
2022-08-19T05:49:24.913Z,7.70
2022-08-19T05:51:54.029Z,10.32
2022-08-19T05:54:25.154Z,10.95
2022-08-19T05:56:54.665Z,8.20
2022-08-19T05:59:24.886Z,7.25
2022-08-19T06:01:56.125Z,10.05
2022-08-19T06:04:26.476Z,9.32
2022-08-19T06:06:56.134Z,7.55
2022-08-19T06:09:26.010Z,8.90
2022-08-19T06:11:56.287Z,9.55
2022-08-19T06:14:30.198Z,11.05
2022-08-19T06:17:04.937Z,13.25
2022-08-19T06:19:41.082Z,6.20
2022-08-19T06:22:10.899Z,8.98
2022-08-19T06:24:40.874Z,6.53
2022-08-19T06:27:09.391Z,6.80
2022-08-19T06:29:38.061Z,11.80
2022-08-19T06:32:06.862Z,7.95
2022-08-19T06:34:36.796Z,9.40
2022-08-19T06:37:06.792Z,9.00
2022-08-19T06:39:39.284Z,8.70
2022-08-19T06:42:12.535Z,8.35
2022-08-19T06:44:43.845Z,6.22
2022-08-19T06:47:23.498Z,6.20
2022-08-19T06:50:02.787Z,8.52
2022-08-19T06:52:36.742Z,12.50
2022-08-19T06:55:07.906Z,22.40
2022-08-19T06:57:37.880Z,20.33
2022-08-19T07:00:13.028Z,16.98
2022-08-19T07:02:44.711Z,13.07
2022-08-19T07:05:17.104Z,11.43
2022-08-19T07:07:45.583Z,11.90
2022-08-19T07:10:16.442Z,14.55
2022-08-19T07:12:48.727Z,11.57
2022-08-19T07:15:17.348Z,8.13
2022-08-19T07:17:52.540Z,6.50
2022-08-19T07:20:21.779Z,22.15
2022-08-19T07:22:56.859Z,20.05
2022-08-19T07:25:32.352Z,13.40
2022-08-19T07:30:31.999Z,7.90
2022-08-19T07:33:03.705Z,8.98
2022-08-19T07:35:34.648Z,8.60
2022-08-19T07:38:04.899Z,7.10
2022-08-19T07:40:33.601Z,8.13
2022-08-19T07:43:03.570Z,8.05
2022-08-19T07:45:33.354Z,6.78
2022-08-19T07:48:02.149Z,9.65
2022-08-19T07:50:30.677Z,13.38
2022-08-19T07:52:59.232Z,7.07
2022-08-19T07:55:41.061Z,7.82
2022-08-19T07:58:15.604Z,17.08
2022-08-19T08:00:44.796Z,5.95
2022-08-19T08:03:13.769Z,7.25
2022-08-19T08:06:00.229Z,7.22
2022-08-19T08:08:48.359Z,6.07
2022-08-19T08:11:20.787Z,7.40
2022-08-19T08:14:00.823Z,7.78
2022-08-19T08:16:35.727Z,10.10
2022-08-19T08:19:20.231Z,6.85
2022-08-19T08:21:57.689Z,10.88
2022-08-19T08:24:28.722Z,7.78
2022-08-19T08:26:58.013Z,10.32
2022-08-19T08:29:34.489Z,7.93
2022-08-19T08:32:13.963Z,8.70
2022-08-19T08:34:43.033Z,7.47
2022-08-19T08:37:11.588Z,8.18
2022-08-19T08:39:40.177Z,7.00
2022-08-19T08:42:18.047Z,9.95
2022-08-19T08:47:30.770Z,9.07
2022-08-19T08:50:05.202Z,7.38
2022-08-19T08:52:39.371Z,6.65
2022-08-19T08:55:12.514Z,4.90
2022-08-19T08:57:46.706Z,9.73
2022-08-19T09:00:20.958Z,4.47
2022-08-19T09:02:50.559Z,5.97
2022-08-19T09:05:22.707Z,5.72
2022-08-19T09:08:01.832Z,8.32
2022-08-19T09:10:34.056Z,6.50
2022-08-19T09:13:12.208Z,6.18
2022-08-19T09:15:47.461Z,8.52
2022-08-19T09:18:19.509Z,9.03
2022-08-19T09:20:49.509Z,8.85
2022-08-19T09:23:18.304Z,6.85
2022-08-19T09:25:55.308Z,7.10
2022-08-19T09:28:27.283Z,4.25
2022-08-19T09:30:57.272Z,11.25
2022-08-19T09:33:25.878Z,5.95
2022-08-19T09:36:08.425Z,6.25
2022-08-19T09:38:43.641Z,9.45
2022-08-19T09:41:14.927Z,11.55
2022-08-19T09:43:47.826Z,4.28
2022-08-19T09:46:19.283Z,6.28
2022-08-19T09:48:53.295Z,6.03
2022-08-19T09:51:24.052Z,11.75
2022-08-19T09:53:55.078Z,7.97
2022-08-19T09:56:24.682Z,4.78
2022-08-19T09:58:53.562Z,6.65
2022-08-19T10:01:26.844Z,9.80
2022-08-19T10:03:58.850Z,9.23
2022-08-19T10:06:46.684Z,9.65
2022-08-19T10:09:17.346Z,9.27
2022-08-19T10:11:55.227Z,12.63
2022-08-19T10:14:24.799Z,8.88
2022-08-19T10:16:54.702Z,6.60
2022-08-19T10:19:25.705Z,5.05
2022-08-19T10:21:58.574Z,4.80
2022-08-19T10:24:29.366Z,6.50
2022-08-19T10:26:59.734Z,6.93
2022-08-19T10:29:32.535Z,9.20
2022-08-19T10:32:04.647Z,5.93
2022-08-19T10:37:23.743Z,9.73
2022-08-19T10:39:57.439Z,6.60
2022-08-19T10:42:25.890Z,7.05
2022-08-19T10:44:54.404Z,5.57
2022-08-19T10:47:26.018Z,8.95
2022-08-19T10:50:13.779Z,5.70
2022-08-19T10:52:49.457Z,6.57
2022-08-19T10:55:39.514Z,5.63
2022-08-19T10:58:13.397Z,9.27
2022-08-19T11:00:43.394Z,9.10
2022-08-19T11:03:13.345Z,10.88
2022-08-19T11:05:42.453Z,7.18
2022-08-19T11:08:22.121Z,4.85
2022-08-19T11:10:59.149Z,3.28
2022-08-19T11:13:27.764Z,4.85
2022-08-19T11:16:06.562Z,5.47
2022-08-19T11:18:38.852Z,10.65
2022-08-19T11:21:09.183Z,5.07
2022-08-19T11:23:37.739Z,10.40
2022-08-19T11:26:06.426Z,5.07
2022-08-19T11:28:35.074Z,5.65
2022-08-19T11:31:04.427Z,7.25
2022-08-19T11:33:33.835Z,8.07
2022-08-19T11:36:03.646Z,7.35
2022-08-19T11:38:32.206Z,4.63
2022-08-19T11:41:02.230Z,4.13
2022-08-19T11:43:36.795Z,9.93
2022-08-19T11:46:08.974Z,5.70
2022-08-19T11:48:37.945Z,9.25
2022-08-19T11:51:10.874Z,5.15
2022-08-19T11:53:40.448Z,7.15
2022-08-19T11:56:10.762Z,6.72
2022-08-19T11:58:39.235Z,6.05
2022-08-19T12:01:09.229Z,7.25
2022-08-19T12:03:37.831Z,8.13
2022-08-19T12:06:09.567Z,7.72
2022-08-19T12:08:38.052Z,5.63
2022-08-19T12:11:08.842Z,5.95
2022-08-19T12:13:38.030Z,7.80
2022-08-19T12:16:10.737Z,7.00
2022-08-19T12:18:39.290Z,5.90
2022-08-19T12:21:09.227Z,5.65
2022-08-19T12:23:38.481Z,5.10
2022-08-19T12:26:07.217Z,6.25
2022-08-19T12:28:35.777Z,6.82
2022-08-19T12:31:04.321Z,6.15
2022-08-19T12:33:33.163Z,5.55
2022-08-19T12:36:04.861Z,6.00
2022-08-19T12:38:35.368Z,6.43
2022-08-19T12:41:07.412Z,11.02
2022-08-19T12:43:36.865Z,7.88
2022-08-19T12:46:05.756Z,7.47
2022-08-19T12:48:35.172Z,7.35
2022-08-19T12:51:08.299Z,12.30
2022-08-19T12:53:39.229Z,6.80
2022-08-19T12:56:11.530Z,5.75
2022-08-19T12:58:48.889Z,9.40
2022-08-19T13:01:23.163Z,6.05
2022-08-19T13:03:53.254Z,12.75
2022-08-19T13:06:22.524Z,6.28
2022-08-19T13:08:56.501Z,5.28
2022-08-19T13:11:28.206Z,7.32
2022-08-19T13:13:57.261Z,5.95
2022-08-19T13:16:28.577Z,12.18
2022-08-19T13:18:58.571Z,11.90
2022-08-19T13:21:31.007Z,10.23
2022-08-19T13:24:01.066Z,8.52
2022-08-19T13:26:29.546Z,5.97
2022-08-19T13:29:15.321Z,8.07
2022-08-19T13:32:01.976Z,14.52
2022-08-19T13:34:35.046Z,9.95
2022-08-19T13:37:05.148Z,8.02
2022-08-19T13:39:36.309Z,11.35
2022-08-19T13:42:05.870Z,9.48
2022-08-19T13:44:34.939Z,5.95
2022-08-19T13:47:06.686Z,9.30
2022-08-19T13:49:36.968Z,9.73
2022-08-19T13:52:06.704Z,7.57
2022-08-19T13:54:36.636Z,6.97
2022-08-19T13:57:05.704Z,12.40
2022-08-19T13:59:34.622Z,15.52
2022-08-19T14:02:03.636Z,14.73
2022-08-19T14:04:32.160Z,14.75
2022-08-19T14:07:00.616Z,13.38
2022-08-19T14:09:29.107Z,12.30
2022-08-19T14:11:58.955Z,16.63
2022-08-19T14:14:27.346Z,8.68
2022-08-19T14:16:55.812Z,9.63
2022-08-19T14:19:24.247Z,13.48
2022-08-19T14:21:52.774Z,14.85
2022-08-19T14:24:21.216Z,12.77
2022-08-19T14:26:49.918Z,15.77
2022-08-19T14:29:19.816Z,17.63
2022-08-19T14:31:48.254Z,14.68
2022-08-19T14:34:16.733Z,13.50
2022-08-19T14:36:46.225Z,17.08
2022-08-19T14:39:14.720Z,17.25
2022-08-19T14:41:43.838Z,19.00
2022-08-19T14:44:13.583Z,17.88
2022-08-19T14:46:49.643Z,19.90
2022-08-19T14:49:19.086Z,19.13
2022-08-19T14:51:48.763Z,18.20
2022-08-19T14:54:17.212Z,17.92
2022-08-19T14:56:45.890Z,16.27
2022-08-19T14:59:14.632Z,17.50
2022-08-19T15:01:44.830Z,15.25
2022-08-19T15:04:13.329Z,18.02
2022-08-19T15:06:43.354Z,17.02
2022-08-19T15:09:12.668Z,15.02
2022-08-19T15:11:41.241Z,18.63
2022-08-19T15:14:10.266Z,10.98
2022-08-19T15:16:40.577Z,12.48
2022-08-19T15:19:11.360Z,12.48
2022-08-19T15:21:39.929Z,11.50
2022-08-19T15:24:08.712Z,12.25
2022-08-19T15:26:37.303Z,9.30
2022-08-19T15:29:06.255Z,8.38
2022-08-19T15:31:38.222Z,8.57
2022-08-19T15:34:08.053Z,7.80
2022-08-19T15:36:38.614Z,12.02
2022-08-19T15:39:10.135Z,11.07
2022-08-19T15:41:41.252Z,13.48
2022-08-19T15:44:13.339Z,10.68
2022-08-19T15:46:45.320Z,10.75
2022-08-19T15:49:16.277Z,12.38
2022-08-19T15:51:49.138Z,10.07
2022-08-19T15:54:22.739Z,8.23
2022-08-19T15:57:09.252Z,9.70
2022-08-19T16:00:02.431Z,7.22
2022-08-19T16:02:53.532Z,10.55
2022-08-19T16:05:44.190Z,7.30
2022-08-19T16:08:15.644Z,12.43
2022-08-19T16:10:44.242Z,10.45
2022-08-19T16:13:12.774Z,6.57
2022-08-19T16:15:42.118Z,7.72
2022-08-19T17:42:12.506Z,7.65
2022-08-19T17:44:41.015Z,6.75
2022-08-19T17:47:09.500Z,8.32
2022-08-19T17:49:38.192Z,10.27
2022-08-19T17:52:09.941Z,42.63
2022-08-19T17:54:38.927Z,216.45
2022-08-19T17:57:07.420Z,142.15
2022-08-19T17:59:37.703Z,24.50
2022-08-19T18:02:08.076Z,13.05
2022-08-19T18:04:39.009Z,12.68
2022-08-19T18:07:07.543Z,5.68
2022-08-19T18:09:41.807Z,7.43
2022-08-19T18:12:12.561Z,9.05
2022-08-19T18:14:43.371Z,6.30
2022-08-19T18:17:13.620Z,6.68
2022-08-19T18:19:44.195Z,4.88
2022-08-19T18:22:14.924Z,8.27
2022-08-19T18:24:45.961Z,7.30
2022-08-19T18:27:15.046Z,4.57
2022-08-19T18:29:45.361Z,8.80
2022-08-19T18:32:14.704Z,9.52
2022-08-19T18:34:44.585Z,8.13
2022-08-19T18:37:13.979Z,3.83
2022-08-19T18:39:59.980Z,9.43
2022-08-19T18:42:46.010Z,8.02
2022-08-19T18:45:33.317Z,6.18
2022-08-19T18:48:26.852Z,4.65
2022-08-19T18:50:58.508Z,3.10
2022-08-19T18:53:29.038Z,8.10
2022-08-19T18:55:57.898Z,6.88
2022-08-19T18:58:28.477Z,8.50
2022-08-19T19:00:58.407Z,6.00
2022-08-19T19:03:27.096Z,6.30
2022-08-19T19:05:55.786Z,7.40
2022-08-19T19:08:27.094Z,8.35
2022-08-19T19:10:59.024Z,7.25
2022-08-19T19:13:29.265Z,8.35
2022-08-19T19:16:01.233Z,4.68
2022-08-19T19:18:30.206Z,8.45
2022-08-19T19:20:59.195Z,6.70
2022-08-19T19:23:28.616Z,8.13
2022-08-19T19:25:57.026Z,8.27
2022-08-19T19:28:28.396Z,5.95
2022-08-19T19:30:59.351Z,6.45
2022-08-19T19:33:29.182Z,7.65
2022-08-19T19:35:57.709Z,5.75
2022-08-19T19:38:26.141Z,6.35
2022-08-19T19:40:54.670Z,8.30
2022-08-19T19:43:23.298Z,6.78
2022-08-19T19:45:52.090Z,9.30
2022-08-19T19:48:22.019Z,5.70
2022-08-19T19:50:53.941Z,6.32
2022-08-19T19:53:26.359Z,6.22
2022-08-19T19:55:58.758Z,5.53
2022-08-19T19:58:28.964Z,7.18
2022-08-19T20:00:59.018Z,7.00
2022-08-19T20:03:30.028Z,5.38
2022-08-19T20:05:59.632Z,4.78
2022-08-19T20:08:46.548Z,6.57
2022-08-19T20:11:26.225Z,13.02
2022-08-19T20:13:54.675Z,10.30
2022-08-19T20:16:25.449Z,8.80
2022-08-19T20:18:55.865Z,4.57
2022-08-19T20:21:28.500Z,6.20
2022-08-19T20:24:08.594Z,8.02
2022-08-19T20:26:38.293Z,6.30
2022-08-19T20:29:13.522Z,7.25
2022-08-19T20:31:57.772Z,7.47
2022-08-19T20:34:29.695Z,9.27
2022-08-19T20:36:58.148Z,6.68
2022-08-19T20:39:26.597Z,6.07
2022-08-19T20:41:56.529Z,6.60
2022-08-19T20:44:26.019Z,9.43
2022-08-19T20:46:57.541Z,6.90
2022-08-19T20:49:29.587Z,5.72
2022-08-19T20:51:58.566Z,6.63
2022-08-19T20:54:27.466Z,4.68
2022-08-19T20:56:56.081Z,8.38
2022-08-19T20:59:25.966Z,4.38
2022-08-19T21:01:54.911Z,7.60
2022-08-19T21:04:23.704Z,8.45
2022-08-19T21:06:54.816Z,5.80
2022-08-19T21:09:23.488Z,8.98
2022-08-19T21:11:51.950Z,6.60
2022-08-19T21:14:20.803Z,7.57
2022-08-19T21:16:49.459Z,4.55
2022-08-19T21:19:22.038Z,6.05
2022-08-19T21:21:54.067Z,5.68
2022-08-19T21:24:26.300Z,5.82
2022-08-19T21:27:00.165Z,5.30
2022-08-19T21:29:28.609Z,7.80
2022-08-19T21:31:57.067Z,7.07
2022-08-19T21:34:25.554Z,6.75
2022-08-19T21:36:55.399Z,8.40
2022-08-19T21:39:24.055Z,9.73
2022-08-19T21:41:52.629Z,7.00
2022-08-19T21:44:21.086Z,4.82
2022-08-19T21:46:50.546Z,8.60
2022-08-19T21:49:19.811Z,5.53
2022-08-19T21:51:48.300Z,8.52
2022-08-19T21:54:18.327Z,6.13
2022-08-19T21:56:47.200Z,7.25
2022-08-19T21:59:17.082Z,5.43
2022-08-19T22:01:49.676Z,12.45
2022-08-19T22:04:22.485Z,10.05
2022-08-19T22:06:51.102Z,9.07
2022-08-19T22:09:20.991Z,9.40
2022-08-19T22:11:49.615Z,9.52
2022-08-19T22:14:18.054Z,9.45
2022-08-19T22:16:47.441Z,8.55
2022-08-19T22:19:15.861Z,9.05
2022-08-19T22:21:44.321Z,9.68
2022-08-19T22:24:12.680Z,10.35
2022-08-19T22:26:42.576Z,11.32
2022-08-19T22:29:11.076Z,10.65
2022-08-19T22:31:44.450Z,8.15
2022-08-19T22:34:12.882Z,7.68
2022-08-19T22:36:41.566Z,10.20
2022-08-19T22:39:10.000Z,9.75
2022-08-19T22:41:40.853Z,9.48
2022-08-19T22:44:11.632Z,15.23
2022-08-19T22:46:40.109Z,8.82
2022-08-19T22:49:08.672Z,9.18
2022-08-19T22:51:54.763Z,13.15
2022-08-19T22:54:23.329Z,10.63
2022-08-19T22:56:52.798Z,14.43
2022-08-19T22:59:22.683Z,12.45
2022-08-19T23:01:51.112Z,10.38
2022-08-19T23:04:19.657Z,12.23
2022-08-19T23:06:48.184Z,14.55
2022-08-19T23:09:17.462Z,11.80
2022-08-19T23:11:46.132Z,12.13
2022-08-19T23:14:16.937Z,16.52
2022-08-19T23:16:51.024Z,17.50
2022-08-19T23:19:21.310Z,15.93
2022-08-19T23:21:50.242Z,16.02
2022-08-19T23:24:18.744Z,16.58
2022-08-19T23:27:01.072Z,16.48
2022-08-19T23:29:47.303Z,17.20
2022-08-19T23:32:19.062Z,23.67
2022-08-19T23:34:48.448Z,19.60
2022-08-19T23:37:16.935Z,26.73
2022-08-19T23:39:45.607Z,22.95
2022-08-19T23:42:14.306Z,23.75
2022-08-19T23:44:52.106Z,21.67
2022-08-19T23:47:23.671Z,20.85
2022-08-19T23:49:52.096Z,20.02
2022-08-19T23:52:21.045Z,22.95
2022-08-19T23:54:49.568Z,20.95
2022-08-19T23:57:17.995Z,25.38
2022-08-19T23:59:46.497Z,23.63
